Airfield :
LOGIN :

Register | Disclaimer

   EN    FR    IT 

 










Legend :    VFR   Marginal VFR   IFR   Intensive IFR   Very Intensive IFR
Visi :
Ceiling :
>= 8 km
>= 3000ft
5 to 8 km
1000 to 3000 ft
1500m to 5 km
500 to 1000 ft
800 to 1500m
200 to 500 ft
< 800m
< 200 ft
Symbols :   Thunderstorms  Fog  Heavy snow  Heavy precipitations  Wind > 20 kt
SIGMETs :     Misc.  Thunderstorms  Icing  Turbulence  Mountain Waves  Volcanic Ashes






- Airport Elevation : 3 ft
- IATA code : DHR


EHKD - Den Helder De Kooy

CURRENT METAR :
  • 151755Z AUTO 21008KT 9999 FEW038 OVC120 14/13 Q1005 BLU 21014KT CAVOK TEMPO 4500 SHRA SCT008 SCT014CB BKN030

EXPIRED METARs :
  • 151725Z AUTO 21008KT 180V240 9999 OVC120 14/13 Q1005 BLU 21014KT CAVOK TEMPO 4500 SHRA SCT008 SCT014CB BKN030
  • 151655Z AUTO 21008KT 180V240 9999 OVC100/// 14/13 Q1005 BLU 21014KT CAVOK TEMPO 4500 SHRA SCT008 SCT014CB BKN030
  • 151625Z AUTO 21009KT 180V240 9999 OVC084 15/13 Q1005 BLU 21014KT CAVOK TEMPO 4500 SHRA SCT008 SCT014CB BKN030
  • 151555Z AUTO 21011KT 190V250 9999 OVC077 15/13 Q1004 BLU 21014KT CAVOK TEMPO 4500 SHRA SCT008 SCT014CB BKN030
  • 151525Z AUTO 21011KT 180V240 9999 BKN036 OVC043 15/13 Q1005 BLU 21014KT 9999 FEW008 SCT015 TEMPO SCT008 BKN012

TAF TAF EHKD
Valid from the 15 at 17:00 until the 16 at 05:00 UTC


151654Z 1517/1605 21008KT 9999 FEW022 BKN080
TEMPO 1517/1521 FEW006 BKN010 OVC014
PROB30
TEMPO 1520/1603 4500 SHRA FEW010 BKN014 SCT020CB BKN030
PROB30 1602/1605 4000 BR FEW004 BKN006



MET'MAP, your aeronautical weather chart ! - Copyright ORBIFLY December 2007 - Disclaimer

ORBIFLY MET'MAP TEAM :

Programming & Development : Alexandra Zaïnal
Concept & Development : Baudouin d'Aumeries
Co-Development & Prog : Marc-Olivier Méhu
Technical & hardware support : Manuel Goepfert

Contact : metmap@orbifly.com




SOURCES & CREDITS :

   NOAA